createdAt,value
2023-04-10T00:00:57.672Z,7.40
2023-04-10T00:03:25.155Z,7.10
2023-04-10T00:05:54.746Z,8.70
2023-04-10T00:08:24.905Z,10.50
2023-04-10T00:10:51.951Z,9.60
2023-04-10T00:13:18.724Z,9.90
2023-04-10T00:15:45.424Z,10.10
2023-04-10T00:18:12.290Z,12.10
2023-04-10T00:20:39.054Z,11.90
2023-04-10T00:23:06.264Z,12.40
2023-04-10T00:25:33.008Z,10.20
2023-04-10T00:27:59.783Z,10.40
2023-04-10T00:30:26.652Z,10.40
2023-04-10T00:32:53.613Z,13.00
2023-04-10T00:35:20.423Z,14.40
2023-04-10T00:37:47.095Z,11.30
2023-04-10T00:40:13.856Z,11.30
2023-04-10T00:42:40.588Z,12.80
2023-04-10T00:45:07.491Z,11.60
2023-04-10T00:47:34.547Z,10.10
2023-04-10T00:50:01.767Z,10.00
2023-04-10T00:52:28.539Z,10.20
2023-04-10T00:54:55.273Z,10.00
2023-04-10T00:57:22.090Z,11.20
2023-04-10T00:59:51.058Z,8.50
2023-04-10T01:02:20.258Z,14.00
2023-04-10T01:04:47.778Z,10.50
2023-04-10T01:07:23.756Z,10.50
2023-04-10T01:09:54.322Z,9.90
2023-04-10T01:12:28.265Z,11.10
2023-04-10T01:14:58.023Z,10.80
2023-04-10T01:17:30.893Z,10.40
2023-04-10T01:20:01.920Z,10.60
2023-04-10T01:22:32.547Z,10.00
2023-04-10T01:25:11.246Z,10.90
2023-04-10T01:27:52.510Z,9.00
2023-04-10T01:30:22.093Z,11.10
2023-04-10T01:32:50.441Z,11.40
2023-04-10T01:35:17.736Z,10.50
2023-04-10T01:37:47.642Z,12.00
2023-04-10T01:40:16.727Z,10.70
2023-04-10T01:42:55.472Z,11.10
2023-04-10T01:45:28.901Z,10.20
2023-04-10T01:47:56.296Z,10.30
2023-04-10T01:50:27.352Z,8.50
2023-04-10T01:52:54.412Z,8.40
2023-04-10T01:55:25.090Z,8.80
2023-04-10T01:57:56.567Z,12.60
2023-04-10T02:00:24.121Z,9.50
2023-04-10T02:02:51.928Z,10.00
2023-04-10T02:05:19.327Z,10.60
2023-04-10T02:08:04.864Z,10.50
2023-04-10T02:10:37.649Z,9.30
2023-04-10T02:13:07.917Z,11.20
2023-04-10T02:15:35.057Z,9.90
2023-04-10T02:18:04.930Z,10.80
2023-04-10T02:20:32.543Z,9.40
2023-04-10T02:23:03.523Z,10.80
2023-04-10T02:25:34.094Z,8.00
2023-04-10T02:28:05.116Z,10.40
2023-04-10T02:30:33.227Z,9.60
2023-04-10T02:33:00.479Z,11.60
2023-04-10T02:35:29.303Z,10.80
2023-04-10T02:37:56.351Z,9.30
2023-04-10T02:40:23.320Z,8.60
2023-04-10T02:43:10.297Z,8.40
2023-04-10T02:45:37.097Z,8.60
2023-04-10T02:48:06.286Z,7.10
2023-04-10T02:50:33.157Z,8.10
2023-04-10T02:53:00.064Z,7.60
2023-04-10T02:55:26.774Z,9.20
2023-04-10T02:57:54.418Z,9.00
2023-04-10T03:00:21.148Z,8.00
2023-04-10T03:02:59.692Z,8.60
2023-04-10T03:05:29.099Z,10.40
2023-04-10T03:07:56.137Z,7.70
2023-04-10T03:10:24.605Z,9.50
2023-04-10T03:12:51.465Z,8.40
2023-04-10T03:15:19.066Z,9.10
2023-04-10T03:17:46.235Z,7.60
2023-04-10T03:20:13.420Z,7.40
2023-04-10T03:22:41.011Z,8.30
2023-04-10T03:25:08.273Z,7.60
2023-04-10T03:27:35.153Z,9.70
2023-04-10T03:30:02.934Z,7.90
2023-04-10T03:32:33.717Z,8.60
2023-04-10T03:35:00.541Z,10.20
2023-04-10T03:37:27.868Z,7.60
2023-04-10T03:39:54.680Z,11.30
2023-04-10T03:42:21.455Z,8.70
2023-04-10T03:44:48.233Z,7.10
2023-04-10T03:47:15.234Z,8.50
2023-04-10T03:49:44.062Z,9.50
2023-04-10T03:52:10.748Z,10.20
2023-04-10T03:54:38.223Z,7.90
2023-04-10T03:57:05.322Z,10.00
2023-04-10T03:59:38.704Z,8.70
2023-04-10T04:02:08.546Z,8.20
2023-04-10T04:04:35.531Z,42.10
2023-04-10T04:07:25.151Z,28.10
2023-04-10T04:10:12.510Z,13.10
2023-04-10T04:12:55.871Z,10.50
2023-04-10T04:15:36.408Z,10.60
2023-04-10T04:18:35.433Z,11.00
2023-04-10T04:21:21.771Z,9.00
2023-04-10T04:24:06.259Z,11.20
2023-04-10T04:26:56.733Z,9.20
2023-04-10T04:29:49.459Z,11.30
2023-04-10T04:32:35.386Z,11.80
2023-04-10T04:35:12.902Z,13.00
2023-04-10T04:38:14.007Z,10.60
2023-04-10T04:41:00.955Z,13.20
2023-04-10T04:43:39.639Z,9.60
2023-04-10T04:46:26.874Z,12.90
2023-04-10T04:49:31.908Z,10.10
2023-04-10T04:52:13.689Z,10.90
2023-04-10T04:54:43.642Z,9.80
2023-04-10T04:57:29.049Z,11.70
2023-04-10T05:00:17.356Z,11.00
2023-04-10T05:02:47.046Z,9.30
2023-04-10T05:05:29.169Z,7.50
2023-04-10T05:08:21.938Z,9.70
2023-04-10T05:11:14.883Z,10.50
2023-04-10T05:14:00.478Z,9.80
2023-04-10T05:16:58.067Z,9.90
2023-04-10T05:19:57.169Z,17.40
2023-04-10T05:22:55.824Z,14.60
2023-04-10T05:25:48.975Z,53.30
2023-04-10T05:28:19.649Z,82.40
2023-04-10T05:31:09.414Z,33.00
2023-04-10T05:33:38.719Z,26.50
2023-04-10T05:36:24.264Z,19.60
2023-04-10T05:39:03.049Z,33.20
2023-04-10T05:41:48.344Z,17.80
2023-04-10T05:44:29.643Z,13.20
2023-04-10T05:47:02.098Z,12.40
2023-04-10T05:49:51.864Z,12.30
2023-04-10T05:52:31.059Z,10.90
2023-04-10T05:55:26.930Z,11.80
2023-04-10T05:58:13.846Z,17.80
2023-04-10T06:01:13.587Z,15.90
2023-04-10T06:03:56.515Z,19.40
2023-04-10T06:06:25.899Z,14.00
2023-04-10T06:08:53.040Z,13.00
2023-04-10T06:11:20.120Z,16.30
2023-04-10T06:13:50.324Z,19.70
2023-04-10T06:16:17.398Z,24.80
2023-04-10T06:18:44.496Z,16.60
2023-04-10T06:21:11.211Z,23.40
2023-04-10T06:23:38.625Z,16.90
2023-04-10T06:26:05.563Z,14.30
2023-04-10T06:28:32.385Z,17.30
2023-04-10T06:31:04.254Z,39.20
2023-04-10T06:33:36.107Z,19.60
2023-04-10T06:36:04.018Z,13.60
2023-04-10T06:38:37.660Z,15.00
2023-04-10T06:41:07.146Z,12.70
2023-04-10T06:43:34.356Z,12.60
2023-04-10T06:46:01.270Z,15.90
2023-04-10T06:48:28.120Z,16.90
2023-04-10T06:50:54.854Z,19.10
2023-04-10T06:53:21.615Z,13.60
2023-04-10T06:55:48.527Z,13.40
2023-04-10T06:58:15.362Z,15.20
2023-04-10T07:00:42.386Z,17.30
2023-04-10T07:03:09.131Z,15.70
2023-04-10T07:05:35.856Z,14.20
2023-04-10T07:08:02.599Z,20.90
2023-04-10T07:10:29.249Z,15.20
2023-04-10T07:12:57.347Z,11.60
2023-04-10T07:15:24.127Z,13.70
2023-04-10T07:17:50.957Z,14.80
2023-04-10T07:20:17.802Z,15.10
2023-04-10T07:22:44.578Z,14.40
2023-04-10T07:25:11.314Z,12.60
2023-04-10T07:27:38.079Z,15.90
2023-04-10T07:30:05.022Z,13.00
2023-04-10T07:32:32.754Z,15.20
2023-04-10T07:34:59.529Z,13.90
2023-04-10T07:37:26.635Z,14.30
2023-04-10T07:39:53.489Z,13.30
2023-04-10T07:42:20.357Z,15.70
2023-04-10T07:44:47.144Z,13.80
2023-04-10T07:47:13.802Z,14.30
2023-04-10T07:49:41.287Z,13.90
2023-04-10T07:52:08.066Z,14.30
2023-04-10T07:54:34.870Z,17.70
2023-04-10T07:57:01.611Z,14.60
2023-04-10T07:59:28.790Z,14.60
2023-04-10T08:01:55.836Z,13.50
2023-04-10T08:04:22.866Z,15.30
2023-04-10T08:06:50.215Z,15.80
2023-04-10T08:09:16.909Z,15.50
2023-04-10T08:11:43.665Z,15.10
2023-04-10T08:14:10.567Z,15.40
2023-04-10T08:16:38.550Z,12.30
2023-04-10T08:19:05.480Z,13.80
2023-04-10T08:21:32.470Z,13.40
2023-04-10T08:24:00.609Z,11.50
2023-04-10T08:26:27.806Z,14.00
2023-04-10T08:28:55.977Z,13.10
2023-04-10T08:31:23.923Z,12.30
2023-04-10T08:33:50.712Z,13.70
2023-04-10T08:36:19.865Z,12.80
2023-04-10T08:38:47.829Z,12.10
2023-04-10T08:41:15.402Z,11.70
2023-04-10T08:43:43.543Z,12.10
2023-04-10T08:46:10.754Z,13.30
2023-04-10T08:48:46.784Z,12.60
2023-04-10T08:51:25.873Z,13.10
2023-04-10T08:53:58.401Z,11.40
2023-04-10T08:56:25.409Z,10.90
2023-04-10T08:58:52.176Z,11.30
2023-04-10T09:01:20.379Z,12.30
2023-04-10T09:03:48.222Z,11.80
2023-04-10T09:06:14.994Z,10.80
2023-04-10T09:08:41.754Z,10.60
2023-04-10T09:11:08.567Z,10.30
2023-04-10T09:13:38.381Z,11.70
2023-04-10T09:16:05.564Z,12.70
2023-04-10T09:18:51.494Z,11.90
2023-04-10T09:21:19.590Z,11.40
2023-04-10T09:23:46.798Z,11.60
2023-04-10T09:26:25.742Z,15.10
2023-04-10T09:28:56.805Z,15.10
2023-04-10T09:31:36.749Z,13.50
2023-04-10T09:34:13.968Z,14.80
2023-04-10T09:36:41.878Z,11.10
2023-04-10T09:39:09.375Z,12.50
2023-04-10T09:41:46.746Z,9.40
2023-04-10T09:44:13.503Z,9.80
2023-04-10T09:46:40.345Z,9.60
2023-04-10T09:49:07.714Z,9.40
2023-04-10T09:51:35.637Z,10.80
2023-04-10T09:54:03.146Z,12.50
2023-04-10T09:56:30.586Z,11.30
2023-04-10T09:58:59.484Z,12.10
2023-04-10T10:01:27.034Z,11.10
2023-04-10T10:03:54.667Z,10.60
2023-04-10T10:06:22.105Z,11.00
2023-04-10T10:08:49.390Z,9.70
2023-04-10T10:11:19.163Z,8.80
2023-04-10T10:13:52.162Z,9.30
2023-04-10T10:16:20.678Z,11.00
2023-04-10T10:19:06.898Z,7.20
2023-04-10T10:21:34.361Z,7.80
2023-04-10T10:24:01.783Z,7.40
2023-04-10T10:26:32.167Z,8.40
2023-04-10T10:28:59.336Z,7.10
2023-04-10T10:31:26.149Z,8.30
2023-04-10T10:33:52.960Z,8.80
2023-04-10T10:36:20.115Z,8.00
2023-04-10T10:39:05.845Z,8.40
2023-04-10T10:41:34.676Z,6.70
2023-04-10T10:44:01.623Z,7.60
2023-04-10T10:46:37.556Z,7.90
2023-04-10T10:49:04.279Z,8.20
2023-04-10T10:51:48.024Z,8.90
2023-04-10T10:54:31.487Z,7.00
2023-04-10T10:56:58.519Z,8.10
2023-04-10T10:59:43.777Z,7.60
2023-04-10T11:02:17.357Z,6.60
2023-04-10T11:04:45.809Z,7.20
2023-04-10T11:07:13.334Z,8.10
2023-04-10T11:09:53.633Z,7.70
2023-04-10T11:12:24.416Z,6.90
2023-04-10T11:15:17.526Z,7.80
2023-04-10T11:17:50.852Z,9.30
2023-04-10T11:20:18.261Z,6.80
2023-04-10T11:23:05.176Z,6.70
2023-04-10T11:25:51.346Z,14.20
2023-04-10T11:28:34.499Z,8.40
2023-04-10T11:31:22.206Z,8.10
2023-04-10T11:33:49.878Z,7.00
2023-04-10T11:36:20.008Z,6.70
2023-04-10T11:38:56.326Z,7.50
2023-04-10T11:41:27.688Z,7.60
2023-04-10T11:43:54.488Z,5.90
2023-04-10T11:46:21.444Z,6.40
2023-04-10T11:48:48.276Z,5.50
2023-04-10T11:51:15.070Z,8.30
2023-04-10T11:53:42.486Z,7.40
2023-04-10T11:56:17.583Z,18.40
2023-04-10T11:58:44.622Z,9.20
2023-04-10T12:01:14.505Z,5.90
2023-04-10T12:03:42.475Z,6.50
2023-04-10T12:06:11.266Z,5.10
2023-04-10T12:08:39.048Z,6.60
2023-04-10T12:11:06.197Z,7.10
2023-04-10T12:13:33.134Z,97.70
2023-04-10T12:16:03.550Z,11.20
2023-04-10T12:18:31.257Z,8.10
2023-04-10T12:20:59.075Z,7.90
2023-04-10T12:23:26.562Z,7.10
2023-04-10T12:25:54.465Z,5.20
2023-04-10T12:28:21.722Z,6.50
2023-04-10T12:30:55.218Z,5.40
2023-04-10T12:33:25.407Z,6.40
2023-04-10T12:35:52.525Z,8.50
2023-04-10T12:38:35.117Z,8.40
2023-04-10T12:41:02.092Z,5.90
2023-04-10T12:43:33.659Z,5.10
2023-04-10T12:46:00.822Z,4.80
2023-04-10T12:48:27.735Z,3.40
2023-04-10T12:50:54.695Z,7.70
2023-04-10T12:53:22.475Z,4.50
2023-04-10T12:55:59.408Z,5.90
2023-04-10T12:58:29.282Z,9.10
2023-04-10T13:00:58.919Z,6.30
2023-04-10T13:03:26.009Z,7.10
2023-04-10T13:05:53.629Z,14.20
2023-04-10T13:08:21.207Z,7.80
2023-04-10T13:10:49.160Z,5.40
2023-04-10T13:13:16.176Z,7.50
2023-04-10T13:15:43.321Z,7.50
2023-04-10T13:18:13.030Z,5.50
2023-04-10T13:20:40.589Z,5.50
2023-04-10T13:23:07.976Z,6.80
2023-04-10T13:25:36.581Z,5.20
2023-04-10T13:28:10.057Z,5.00
2023-04-10T13:30:37.620Z,7.80
2023-04-10T13:33:04.444Z,5.40
2023-04-10T13:35:31.376Z,5.80
2023-04-10T13:37:58.771Z,5.80
2023-04-10T13:40:25.534Z,6.90
2023-04-10T13:42:52.301Z,7.10
2023-04-10T13:45:19.071Z,5.20
2023-04-10T13:47:45.831Z,5.50
2023-04-10T13:50:12.916Z,5.70
2023-04-10T13:52:39.654Z,6.00
2023-04-10T13:55:07.539Z,6.50
2023-04-10T13:57:34.406Z,6.50
2023-04-10T14:00:01.461Z,6.10
2023-04-10T14:02:28.315Z,5.40
2023-04-10T14:04:55.101Z,6.20
2023-04-10T14:07:21.845Z,6.00
2023-04-10T14:09:48.676Z,90.10
2023-04-10T14:12:19.326Z,15.90
2023-04-10T14:14:46.214Z,12.00
2023-04-10T14:17:12.955Z,8.50
2023-04-10T14:19:39.895Z,8.80
2023-04-10T14:22:06.633Z,5.40
2023-04-10T14:24:33.498Z,6.80
2023-04-10T14:27:01.916Z,6.60
2023-04-10T14:29:37.396Z,7.10
2023-04-10T14:32:07.784Z,6.30
2023-04-10T14:34:34.679Z,6.30
2023-04-10T14:37:02.161Z,7.50
2023-04-10T14:39:28.975Z,7.50
2023-04-10T14:41:55.607Z,6.90
2023-04-10T14:44:22.348Z,7.60
2023-04-10T14:46:49.088Z,7.90
2023-04-10T14:49:15.912Z,6.00
2023-04-10T14:51:43.226Z,7.00
2023-04-10T14:54:10.016Z,5.80
2023-04-10T14:56:36.815Z,7.10
2023-04-10T14:59:03.454Z,7.20
2023-04-10T15:01:30.162Z,6.10
2023-04-10T15:03:56.997Z,6.20
2023-04-10T15:06:24.018Z,6.20
2023-04-10T15:08:50.785Z,8.60
2023-04-10T15:11:17.491Z,6.10
2023-04-10T15:13:44.204Z,6.20
2023-04-10T15:16:12.043Z,7.30
2023-04-10T15:18:38.769Z,6.80
2023-04-10T15:21:05.815Z,8.20
2023-04-10T15:23:32.528Z,8.10
2023-04-10T15:25:59.313Z,7.00
2023-04-10T15:28:28.222Z,8.10
2023-04-10T15:30:55.373Z,5.90
2023-04-10T15:33:22.141Z,8.60
2023-04-10T15:35:52.028Z,8.90
2023-04-10T15:38:18.796Z,7.70
2023-04-10T15:40:45.563Z,8.60
2023-04-10T15:43:12.827Z,7.90
2023-04-10T15:45:39.530Z,7.50
2023-04-10T15:48:06.472Z,7.60
2023-04-10T15:50:33.298Z,11.50
2023-04-10T15:53:00.059Z,10.20
2023-04-10T15:55:26.740Z,8.90
2023-04-10T15:57:53.474Z,10.90
2023-04-10T16:00:20.880Z,7.90
2023-04-10T16:02:47.880Z,6.70
2023-04-10T16:05:14.747Z,10.90
2023-04-10T16:07:43.587Z,35.70
2023-04-10T16:10:10.399Z,15.70
2023-04-10T16:12:37.294Z,12.50
2023-04-10T16:15:04.735Z,8.40
2023-04-10T16:17:31.655Z,8.70
2023-04-10T16:19:58.766Z,24.30
2023-04-10T16:22:26.381Z,12.00
2023-04-10T16:24:56.487Z,10.00
2023-04-10T16:27:23.793Z,10.50
2023-04-10T16:29:50.507Z,9.10
2023-04-10T16:32:18.522Z,7.70
2023-04-10T16:34:46.359Z,8.80
2023-04-10T16:37:13.421Z,9.70
2023-04-10T16:39:40.160Z,9.40
2023-04-10T16:42:06.888Z,8.80
2023-04-10T16:44:33.963Z,7.40
2023-04-10T16:47:00.950Z,7.80
2023-04-10T16:49:27.770Z,10.00
2023-04-10T16:51:54.510Z,7.60
2023-04-10T16:54:21.208Z,8.80
2023-04-10T16:56:47.966Z,7.20
2023-04-10T16:59:14.683Z,8.00
2023-04-10T17:01:41.520Z,7.70
2023-04-10T17:04:09.356Z,8.40
2023-04-10T17:06:36.557Z,8.10
2023-04-10T17:09:03.335Z,6.90
2023-04-10T17:11:30.638Z,8.10
2023-04-10T17:13:57.346Z,8.10
2023-04-10T17:16:24.200Z,9.20
2023-04-10T17:18:50.983Z,6.50
2023-04-10T17:21:17.739Z,8.50
2023-04-10T17:23:44.505Z,8.90
2023-04-10T17:26:15.262Z,7.50
2023-04-10T17:28:46.287Z,9.70
2023-04-10T17:31:13.834Z,9.90
2023-04-10T17:33:43.528Z,9.10
2023-04-10T17:36:12.269Z,12.10
2023-04-10T17:38:39.452Z,8.70
2023-04-10T17:41:06.490Z,8.30
2023-04-10T17:43:33.401Z,11.30
2023-04-10T17:46:00.476Z,8.60
2023-04-10T17:48:27.333Z,8.70
2023-04-10T17:50:54.387Z,9.60
2023-04-10T17:53:21.081Z,11.90
2023-04-10T17:55:47.953Z,11.10
2023-04-10T17:58:14.730Z,9.90
2023-04-10T18:00:44.470Z,8.70
2023-04-10T18:03:12.020Z,10.70
2023-04-10T18:05:40.104Z,14.30
2023-04-10T18:08:07.981Z,9.30
2023-04-10T18:10:35.188Z,8.40
2023-04-10T18:13:01.888Z,10.20
2023-04-10T18:15:28.772Z,30.90
2023-04-10T18:17:55.518Z,26.80
2023-04-10T18:20:22.500Z,133.70
2023-04-10T18:22:49.347Z,261.30
2023-04-10T18:25:16.655Z,222.60
2023-04-10T18:27:51.396Z,113.10
2023-04-10T18:30:22.216Z,47.90
2023-04-10T18:32:52.059Z,35.30
2023-04-10T18:35:18.990Z,61.20
2023-04-10T18:37:45.780Z,70.00
2023-04-10T18:40:16.314Z,63.60
2023-04-10T18:42:43.296Z,43.80
2023-04-10T18:45:10.294Z,33.50
2023-04-10T18:47:37.047Z,34.50
2023-04-10T18:50:03.914Z,25.20
2023-04-10T18:52:30.576Z,19.10
2023-04-10T18:54:57.389Z,19.80
2023-04-10T18:57:24.043Z,18.70
2023-04-10T18:59:50.757Z,16.80
2023-04-10T19:02:17.694Z,13.50
2023-04-10T19:04:44.721Z,23.50
2023-04-10T19:07:11.503Z,14.10
2023-04-10T19:09:38.206Z,15.60
2023-04-10T19:12:05.583Z,14.50
2023-04-10T19:14:35.254Z,12.10
2023-04-10T19:17:06.014Z,12.20
2023-04-10T19:19:33.922Z,13.80
2023-04-10T19:22:01.059Z,14.20
2023-04-10T19:24:27.893Z,12.20
2023-04-10T19:26:56.274Z,13.90
2023-04-10T19:29:23.204Z,12.70
2023-04-10T19:31:50.037Z,12.10
2023-04-10T19:34:16.698Z,12.70
2023-04-10T19:36:43.376Z,13.40
2023-04-10T19:39:10.049Z,12.10
2023-04-10T19:41:41.839Z,12.80
2023-04-10T19:44:08.761Z,11.40
2023-04-10T19:46:35.653Z,12.20
2023-04-10T19:49:02.545Z,10.90
2023-04-10T19:51:29.288Z,11.50
2023-04-10T19:53:57.753Z,10.70
2023-04-10T19:56:25.316Z,11.90
2023-04-10T19:58:52.092Z,10.10
2023-04-10T20:01:18.978Z,10.20
2023-04-10T20:03:45.959Z,9.70
2023-04-10T20:06:12.807Z,9.40
2023-04-10T20:08:39.605Z,10.60
2023-04-10T20:11:06.832Z,11.10
2023-04-10T20:13:34.845Z,10.40
2023-04-10T20:16:02.251Z,10.40
2023-04-10T20:18:29.000Z,10.50
2023-04-10T20:20:55.812Z,11.90
2023-04-10T20:23:22.596Z,12.90
2023-04-10T20:25:49.411Z,20.00
2023-04-10T20:28:16.894Z,20.40
2023-04-10T20:30:44.184Z,20.70
2023-04-10T20:33:11.343Z,16.90
2023-04-10T20:35:38.133Z,18.00
2023-04-10T20:38:04.896Z,17.40
2023-04-10T20:40:31.595Z,15.10
2023-04-10T20:42:58.382Z,17.80
2023-04-10T20:45:25.052Z,18.50
2023-04-10T20:47:51.898Z,19.50
2023-04-10T20:50:18.755Z,15.20
2023-04-10T20:52:45.532Z,18.50
2023-04-10T20:55:12.372Z,17.90
2023-04-10T20:57:39.151Z,15.20
2023-04-10T21:00:06.231Z,15.80
2023-04-10T21:02:33.656Z,14.30
2023-04-10T21:05:00.581Z,13.60
2023-04-10T21:07:27.360Z,14.40
2023-04-10T21:09:54.092Z,13.60
2023-04-10T21:12:20.946Z,10.80
2023-04-10T21:14:48.227Z,12.90
2023-04-10T21:17:15.655Z,16.70
2023-04-10T21:19:42.366Z,16.50
2023-04-10T21:22:10.431Z,18.10
2023-04-10T21:24:37.241Z,24.90
2023-04-10T21:27:04.019Z,19.40
2023-04-10T21:29:30.813Z,24.10
2023-04-10T21:31:57.616Z,25.60
2023-04-10T21:34:25.245Z,23.70
2023-04-10T21:36:51.974Z,18.00
2023-04-10T21:39:18.750Z,20.90
2023-04-10T21:41:46.281Z,20.30
2023-04-10T21:44:13.013Z,25.30
2023-04-10T21:46:39.686Z,22.50
2023-04-10T21:49:06.526Z,21.60
2023-04-10T21:51:33.308Z,25.80
2023-04-10T21:54:00.062Z,22.60
2023-04-10T21:56:26.865Z,21.50
2023-04-10T21:58:53.797Z,17.40
2023-04-10T22:01:20.777Z,22.60
2023-04-10T22:03:47.552Z,24.90
2023-04-10T22:06:14.466Z,20.50
2023-04-10T22:08:41.453Z,21.90
2023-04-10T22:11:08.564Z,24.90
2023-04-10T22:13:35.259Z,22.00
2023-04-10T22:16:02.561Z,25.20
2023-04-10T22:18:29.618Z,25.70
2023-04-10T22:20:56.525Z,25.20
2023-04-10T22:23:23.899Z,19.80
2023-04-10T22:25:50.806Z,18.90
2023-04-10T22:28:17.656Z,22.20
2023-04-10T22:30:44.451Z,15.50
2023-04-10T22:33:12.058Z,15.70
2023-04-10T22:35:38.829Z,21.20
2023-04-10T22:38:05.753Z,17.40
2023-04-10T22:40:32.535Z,17.60
2023-04-10T22:42:59.327Z,16.50
2023-04-10T22:45:26.085Z,18.30
2023-04-10T22:47:52.805Z,16.20
2023-04-10T22:50:19.715Z,17.00
2023-04-10T22:52:46.513Z,17.00
2023-04-10T22:55:14.338Z,15.60
2023-04-10T22:57:41.110Z,16.30
2023-04-10T23:00:08.111Z,16.00
2023-04-10T23:02:34.948Z,14.90
2023-04-10T23:05:02.839Z,14.10
2023-04-10T23:07:29.504Z,14.40
2023-04-10T23:09:56.331Z,14.60
2023-04-10T23:12:23.051Z,15.30
2023-04-10T23:14:49.783Z,13.10
2023-04-10T23:17:16.496Z,17.80
2023-04-10T23:19:43.243Z,16.90
2023-04-10T23:22:09.921Z,15.10
2023-04-10T23:25:10.836Z,17.90
2023-04-10T23:27:37.675Z,19.30
2023-04-10T23:30:04.668Z,20.30
2023-04-10T23:32:31.422Z,23.10
2023-04-10T23:34:58.195Z,19.80
2023-04-10T23:37:24.974Z,18.90
2023-04-10T23:39:51.852Z,21.60
2023-04-10T23:42:18.551Z,20.90
2023-04-10T23:44:45.303Z,20.90
2023-04-10T23:47:12.119Z,21.20
2023-04-10T23:49:38.954Z,21.80
2023-04-10T23:52:05.659Z,21.20
2023-04-10T23:54:32.528Z,17.50
2023-04-10T23:56:59.307Z,19.50
2023-04-10T23:59:26.004Z,18.80
